createdAt,value
2022-12-18T00:00:11.166Z,96.88
2022-12-18T00:02:41.701Z,96.44
2022-12-18T00:05:09.156Z,96.67
2022-12-18T00:07:36.826Z,96.57
2022-12-18T00:10:04.945Z,96.58
2022-12-18T00:12:31.892Z,96.24
2022-12-18T00:14:58.919Z,97.20
2022-12-18T00:17:25.817Z,96.89
2022-12-18T00:19:52.847Z,97.12
2022-12-18T00:22:19.753Z,97.24
2022-12-18T00:24:46.706Z,96.55
2022-12-18T00:27:13.685Z,96.73
2022-12-18T00:29:40.618Z,96.66
2022-12-18T00:32:07.941Z,97.01
2022-12-18T00:34:35.226Z,96.88
2022-12-18T00:37:02.357Z,96.69
2022-12-18T00:39:29.310Z,96.81
2022-12-18T00:42:14.626Z,96.91
2022-12-18T00:44:41.610Z,96.67
2022-12-18T00:47:08.537Z,97.09
2022-12-18T00:49:36.298Z,96.02
2022-12-18T00:52:03.647Z,96.89
2022-12-18T00:54:30.615Z,96.67
2022-12-18T00:56:57.552Z,96.90
2022-12-18T00:59:24.516Z,97.49
2022-12-18T01:01:51.566Z,96.81
2022-12-18T01:04:20.537Z,96.79
2022-12-18T01:06:47.537Z,96.35
2022-12-18T01:09:14.610Z,97.05
2022-12-18T01:11:41.707Z,97.50
2022-12-18T01:14:08.933Z,97.06
2022-12-18T01:16:38.232Z,97.20
2022-12-18T01:19:05.338Z,97.84
2022-12-18T01:21:32.406Z,97.45
2022-12-18T01:24:04.815Z,97.25
2022-12-18T01:26:31.842Z,97.58
2022-12-18T01:28:59.362Z,97.67
2022-12-18T01:31:32.925Z,97.36
2022-12-18T01:34:05.128Z,97.45
2022-12-18T01:36:36.111Z,98.11
2022-12-18T01:39:10.934Z,96.90
2022-12-18T01:41:57.710Z,98.33
2022-12-18T01:45:03.757Z,98.21
2022-12-18T01:47:48.261Z,98.04
2022-12-18T01:50:37.848Z,96.68
2022-12-18T01:53:15.453Z,96.70
2022-12-18T01:55:53.769Z,97.85
2022-12-18T01:58:31.643Z,97.76
2022-12-18T02:00:59.057Z,97.67
2022-12-18T02:03:26.347Z,98.07
2022-12-18T02:05:57.514Z,98.14
2022-12-18T02:08:40.500Z,97.29
2022-12-18T02:11:37.645Z,97.56
2022-12-18T02:14:40.365Z,97.71
2022-12-18T02:17:30.726Z,97.43
2022-12-18T02:20:19.477Z,97.75
2022-12-18T02:23:13.731Z,97.85
2022-12-18T02:26:11.159Z,97.87
2022-12-18T02:28:46.459Z,96.82
2022-12-18T02:31:25.262Z,97.31
2022-12-18T02:34:04.058Z,96.34
2022-12-18T02:36:40.146Z,97.43
2022-12-18T02:39:11.427Z,97.49
2022-12-18T02:41:43.952Z,97.99
2022-12-18T02:44:14.175Z,97.28
2022-12-18T02:46:50.083Z,96.66
2022-12-18T02:49:30.657Z,96.75
2022-12-18T02:52:36.598Z,96.54
2022-12-18T02:55:29.416Z,97.17
2022-12-18T02:58:15.903Z,97.16
2022-12-18T03:00:55.034Z,97.13
2022-12-18T03:03:37.551Z,96.80
2022-12-18T03:06:16.173Z,97.14
2022-12-18T03:08:53.955Z,96.97
2022-12-18T03:11:41.022Z,97.08
2022-12-18T03:14:09.050Z,96.86
2022-12-18T03:16:38.502Z,96.39
2022-12-18T03:19:13.421Z,96.56
2022-12-18T03:21:49.311Z,97.26
2022-12-18T03:24:20.036Z,96.65
2022-12-18T03:26:53.932Z,97.90
2022-12-18T03:29:31.104Z,97.16
2022-12-18T03:32:08.834Z,96.42
2022-12-18T03:34:39.635Z,96.93
2022-12-18T03:37:08.681Z,97.20
2022-12-18T03:39:37.650Z,97.02
2022-12-18T03:42:37.349Z,96.68
2022-12-18T03:45:35.061Z,96.28
2022-12-18T03:48:21.267Z,96.87
2022-12-18T03:50:57.478Z,96.87
2022-12-18T03:53:27.797Z,97.29
2022-12-18T03:55:56.251Z,96.49
2022-12-18T03:58:30.025Z,96.75
2022-12-18T04:01:17.270Z,96.62
2022-12-18T04:03:48.046Z,96.81
2022-12-18T04:06:17.417Z,96.05
2022-12-18T04:08:47.745Z,96.31
2022-12-18T04:11:18.305Z,96.07
2022-12-18T04:13:47.631Z,96.54
2022-12-18T04:16:22.400Z,96.09
2022-12-18T04:18:53.864Z,96.45
2022-12-18T04:21:22.390Z,96.22
2022-12-18T04:23:50.411Z,96.31
2022-12-18T04:26:20.227Z,96.29
2022-12-18T04:29:00.242Z,95.92
2022-12-18T04:31:28.807Z,96.18
2022-12-18T04:33:56.535Z,96.09
2022-12-18T04:36:24.024Z,95.61
2022-12-18T04:38:51.420Z,96.49
2022-12-18T04:41:18.918Z,96.38
2022-12-18T04:43:48.416Z,95.93
2022-12-18T04:46:15.589Z,96.75
2022-12-18T04:48:42.691Z,96.42
2022-12-18T04:51:09.704Z,96.09
2022-12-18T04:53:36.985Z,95.90
2022-12-18T04:56:11.622Z,96.05
2022-12-18T04:58:41.019Z,96.04
2022-12-18T05:01:08.825Z,95.27
2022-12-18T05:03:37.841Z,95.26
2022-12-18T05:06:07.124Z,96.10
2022-12-18T05:08:35.068Z,95.60
2022-12-18T05:11:06.117Z,96.26
2022-12-18T05:13:34.340Z,95.32
2022-12-18T05:16:01.781Z,95.42
2022-12-18T05:18:30.131Z,96.15
2022-12-18T05:20:57.607Z,95.62
2022-12-18T05:23:26.136Z,96.22
2022-12-18T05:26:03.219Z,94.97
2022-12-18T05:28:32.627Z,95.22
2022-12-18T05:31:03.312Z,95.71
2022-12-18T05:33:34.167Z,94.59
2022-12-18T05:36:08.085Z,94.97
2022-12-18T05:38:39.126Z,94.65
2022-12-18T05:41:08.042Z,95.00
2022-12-18T05:43:38.204Z,93.68
2022-12-18T05:46:08.162Z,95.31
2022-12-18T05:48:35.298Z,94.66
2022-12-18T05:51:12.335Z,94.01
2022-12-18T05:53:40.287Z,94.13
2022-12-18T05:56:12.238Z,94.59
2022-12-18T05:58:39.705Z,93.71
2022-12-18T06:01:13.960Z,95.00
2022-12-18T06:03:41.630Z,95.00
2022-12-18T06:06:15.764Z,94.03
2022-12-18T06:08:46.207Z,94.20
2022-12-18T06:11:14.608Z,93.92
2022-12-18T06:13:41.752Z,94.24
2022-12-18T06:16:09.433Z,93.91
2022-12-18T06:18:39.302Z,93.97
2022-12-18T06:21:06.513Z,93.84
2022-12-18T06:23:33.779Z,94.45
2022-12-18T06:26:09.192Z,94.58
2022-12-18T06:28:36.400Z,94.15
2022-12-18T06:31:07.227Z,94.62
2022-12-18T06:33:35.222Z,95.06
2022-12-18T06:36:09.004Z,93.97
2022-12-18T06:38:39.722Z,94.45
2022-12-18T06:41:16.614Z,94.63
2022-12-18T06:43:44.823Z,94.80
2022-12-18T06:46:13.482Z,94.62
2022-12-18T06:48:41.173Z,94.92
2022-12-18T06:51:08.756Z,94.06
2022-12-18T06:53:35.735Z,93.58
2022-12-18T06:56:09.863Z,93.92
2022-12-18T06:58:40.193Z,93.33
2022-12-18T07:01:11.765Z,93.37
2022-12-18T07:03:44.014Z,94.59
2022-12-18T07:06:21.352Z,94.82
2022-12-18T07:08:50.833Z,94.56
2022-12-18T07:11:19.653Z,94.30
2022-12-18T07:13:47.411Z,94.50
2022-12-18T07:16:25.311Z,93.69
2022-12-18T07:18:55.490Z,94.21
2022-12-18T07:21:24.710Z,94.00
2022-12-18T07:23:51.722Z,94.48
2022-12-18T07:26:21.539Z,94.23
2022-12-18T07:28:49.472Z,94.36
2022-12-18T07:31:22.670Z,94.73
2022-12-18T07:33:51.229Z,94.47
2022-12-18T07:36:18.859Z,94.14
2022-12-18T07:38:49.272Z,93.99
2022-12-18T07:41:17.088Z,93.04
2022-12-18T07:43:44.549Z,93.27
2022-12-18T07:46:14.888Z,94.06
2022-12-18T07:48:43.673Z,93.47
2022-12-18T07:51:14.199Z,93.82
2022-12-18T07:53:42.843Z,93.69
2022-12-18T07:56:29.979Z,95.00
2022-12-18T07:58:59.392Z,94.08
2022-12-18T08:01:26.859Z,92.90
2022-12-18T08:03:54.246Z,94.20
2022-12-18T08:06:23.830Z,94.47
2022-12-18T08:08:53.859Z,94.23
2022-12-18T08:11:20.905Z,94.59
2022-12-18T08:13:48.806Z,94.36
2022-12-18T08:16:16.975Z,94.69
2022-12-18T08:18:44.044Z,94.14
2022-12-18T08:21:14.515Z,94.60
2022-12-18T08:23:43.348Z,94.91
2022-12-18T08:26:12.007Z,94.78
2022-12-18T08:28:39.465Z,94.78
2022-12-18T08:31:07.631Z,95.02
2022-12-18T08:33:36.275Z,95.99
2022-12-18T08:36:06.875Z,95.19
2022-12-18T08:38:34.577Z,95.13
2022-12-18T08:41:09.079Z,94.32
2022-12-18T08:43:54.885Z,95.22
2022-12-18T08:46:23.751Z,95.19
2022-12-18T08:48:56.920Z,95.17
2022-12-18T08:51:23.935Z,96.17
2022-12-18T08:53:50.932Z,95.38
2022-12-18T08:56:17.983Z,95.44
2022-12-18T08:58:45.113Z,95.91
2022-12-18T09:01:13.421Z,95.40
2022-12-18T09:03:40.863Z,94.15
2022-12-18T09:06:08.612Z,94.91
2022-12-18T09:08:36.000Z,94.91
2022-12-18T09:11:03.087Z,94.49
2022-12-18T09:13:30.115Z,95.14
2022-12-18T09:15:57.357Z,95.61
2022-12-18T09:18:25.395Z,94.17
2022-12-18T09:20:54.041Z,95.55
2022-12-18T09:23:22.337Z,94.25
2022-12-18T09:25:49.538Z,94.20
2022-12-18T09:28:20.302Z,94.25
2022-12-18T09:30:50.756Z,95.28
2022-12-18T09:33:18.279Z,95.84
2022-12-18T09:35:47.047Z,94.79
2022-12-18T09:38:19.104Z,95.15
2022-12-18T09:40:56.008Z,95.21
2022-12-18T09:43:31.465Z,94.68
2022-12-18T09:46:06.426Z,95.89
2022-12-18T09:48:41.966Z,94.94
2022-12-18T09:51:30.248Z,94.02
2022-12-18T09:54:07.955Z,94.59
2022-12-18T09:56:42.643Z,94.48
2022-12-18T09:59:24.833Z,95.03
2022-12-18T10:01:52.447Z,95.05
2022-12-18T10:04:20.023Z,95.35
2022-12-18T10:07:34.019Z,95.02
2022-12-18T10:10:14.723Z,94.93
2022-12-18T10:13:04.744Z,95.29
2022-12-18T10:15:45.259Z,95.58
2022-12-18T10:18:49.556Z,94.78
2022-12-18T10:21:33.750Z,95.22
2022-12-18T10:24:30.564Z,94.96
2022-12-18T10:27:16.203Z,95.53
2022-12-18T10:29:47.182Z,94.06
2022-12-18T10:32:29.997Z,94.20
2022-12-18T10:35:00.842Z,93.99
2022-12-18T10:37:30.924Z,94.37
2022-12-18T10:40:22.377Z,94.91
2022-12-18T10:43:07.465Z,94.51
2022-12-18T10:45:35.097Z,94.58
2022-12-18T10:48:02.249Z,94.06
2022-12-18T10:51:09.601Z,94.27
2022-12-18T10:53:31.172Z,93.81
2022-12-18T10:56:00.943Z,93.91
2022-12-18T10:58:40.537Z,94.48
2022-12-18T11:01:10.163Z,94.35
2022-12-18T11:04:09.649Z,94.87
2022-12-18T11:07:04.468Z,95.42
2022-12-18T11:09:34.479Z,94.36
2022-12-18T11:12:09.919Z,94.42
2022-12-18T11:14:46.761Z,93.73
2022-12-18T11:17:33.604Z,94.12
2022-12-18T11:20:05.441Z,94.40
2022-12-18T11:22:36.473Z,93.99
2022-12-18T11:25:33.225Z,93.82
2022-12-18T11:28:07.452Z,93.41
2022-12-18T11:30:37.522Z,93.08
2022-12-18T11:33:20.422Z,94.05
2022-12-18T11:36:05.902Z,94.63
2022-12-18T11:38:43.826Z,94.13
2022-12-18T11:41:54.188Z,94.47
2022-12-18T11:44:41.112Z,93.59
2022-12-18T11:47:29.395Z,94.31
2022-12-18T11:50:01.513Z,93.63
2022-12-18T11:52:39.424Z,93.96
2022-12-18T11:55:32.588Z,92.97
2022-12-18T11:58:16.685Z,93.50
2022-12-18T12:01:19.896Z,93.69
2022-12-18T12:04:01.976Z,94.18
2022-12-18T12:07:26.279Z,93.95
2022-12-18T12:13:50.108Z,95.02
2022-12-18T12:16:24.878Z,94.07
2022-12-18T12:19:48.468Z,93.85
2022-12-18T12:22:33.722Z,94.69
2022-12-18T12:25:28.027Z,94.77
2022-12-18T12:27:57.736Z,93.18
2022-12-18T12:30:42.307Z,93.48
2022-12-18T12:33:27.143Z,94.50
2022-12-18T12:36:27.322Z,94.38
2022-12-18T12:38:59.661Z,93.31
2022-12-18T12:41:53.007Z,94.16
2022-12-18T12:44:28.714Z,94.42
2022-12-18T12:47:08.670Z,92.84
2022-12-18T12:49:41.052Z,93.28
2022-12-18T12:52:38.922Z,94.29
2022-12-18T12:55:28.315Z,93.94
2022-12-18T12:58:39.766Z,92.91
2022-12-18T13:01:34.351Z,93.12
2022-12-18T13:04:21.676Z,93.19
2022-12-18T13:06:59.884Z,93.58
2022-12-18T13:09:36.875Z,93.86
2022-12-18T13:12:35.060Z,93.33
2022-12-18T13:15:23.882Z,92.93
2022-12-18T13:18:06.291Z,93.39
2022-12-18T13:20:52.436Z,92.97
2022-12-18T13:23:25.763Z,93.33
2022-12-18T13:26:22.071Z,92.68
2022-12-18T13:28:57.908Z,93.01
2022-12-18T13:31:40.168Z,92.22
2022-12-18T13:34:27.872Z,93.15
2022-12-18T13:37:00.503Z,92.70
2022-12-18T13:39:35.886Z,92.74
2022-12-18T13:42:06.074Z,91.52
2022-12-18T13:44:40.663Z,92.62
2022-12-18T13:47:41.260Z,92.72
2022-12-18T13:50:32.466Z,91.93
2022-12-18T13:53:06.290Z,92.67
2022-12-18T13:55:33.866Z,93.55
2022-12-18T13:58:07.880Z,93.29
2022-12-18T14:00:45.947Z,91.95
2022-12-18T14:03:32.664Z,92.95
2022-12-18T14:06:09.264Z,93.08
2022-12-18T14:08:41.676Z,92.61
2022-12-18T14:11:22.151Z,92.98
2022-12-18T14:13:51.184Z,92.72
2022-12-18T14:16:18.929Z,92.94
2022-12-18T14:19:08.419Z,93.00
2022-12-18T14:21:50.729Z,92.02
2022-12-18T14:24:22.175Z,92.57
2022-12-18T14:26:51.421Z,93.37
2022-12-18T14:29:28.863Z,93.22
2022-12-18T14:32:17.062Z,92.24
2022-12-18T14:34:55.040Z,93.13
2022-12-18T14:37:28.104Z,92.46
2022-12-18T14:40:10.879Z,92.93
2022-12-18T14:42:38.777Z,93.19
2022-12-18T14:45:40.991Z,93.26
2022-12-18T14:48:55.519Z,93.56
2022-12-18T14:51:26.961Z,93.00
2022-12-18T14:54:03.777Z,93.25
2022-12-18T14:56:38.214Z,93.04
2022-12-18T14:59:24.992Z,93.14
2022-12-18T15:02:16.521Z,92.47
2022-12-18T15:04:45.028Z,92.38
2022-12-18T15:07:12.124Z,92.56
2022-12-18T15:09:41.834Z,92.46
2022-12-18T15:12:33.865Z,92.96
2022-12-18T15:15:01.196Z,93.73
2022-12-18T15:17:28.445Z,92.89
2022-12-18T15:20:03.677Z,92.96
2022-12-18T15:22:35.302Z,93.27
2022-12-18T15:25:05.329Z,92.66
2022-12-18T15:27:38.855Z,92.60
2022-12-18T15:30:09.052Z,93.00
2022-12-18T15:32:38.616Z,92.12
2022-12-18T15:35:11.962Z,93.00
2022-12-18T15:37:39.509Z,92.98
2022-12-18T15:40:13.840Z,92.92
2022-12-18T15:42:59.485Z,92.48
2022-12-18T15:45:26.779Z,92.27
2022-12-18T15:47:54.016Z,92.85
2022-12-18T15:50:22.357Z,93.07
2022-12-18T15:52:52.743Z,92.33
2022-12-18T15:55:44.186Z,92.09
2022-12-18T15:58:13.533Z,92.49
2022-12-18T16:00:42.172Z,92.29
2022-12-18T16:03:10.329Z,91.97
2022-12-18T16:05:37.566Z,91.27
2022-12-18T16:08:04.745Z,91.69
2022-12-18T16:10:32.098Z,91.68
2022-12-18T16:12:59.242Z,92.26
2022-12-18T16:15:26.159Z,92.01
2022-12-18T16:17:53.223Z,91.41
2022-12-18T16:20:23.143Z,91.05
2022-12-18T16:22:50.839Z,91.02
2022-12-18T16:25:22.619Z,91.15
2022-12-18T16:27:50.422Z,90.62
2022-12-18T16:30:25.182Z,90.67
2022-12-18T16:32:53.024Z,89.67
2022-12-18T16:35:19.927Z,90.55
2022-12-18T16:37:46.962Z,90.12
2022-12-18T16:40:17.817Z,89.88
2022-12-18T16:42:47.189Z,89.77
2022-12-18T16:45:18.593Z,89.44
2022-12-18T16:47:46.312Z,89.81
2022-12-18T16:50:13.541Z,89.47
2022-12-18T16:52:40.816Z,89.67
2022-12-18T16:55:09.372Z,89.13
2022-12-18T16:57:36.486Z,89.92
2022-12-18T17:00:06.188Z,89.07
2022-12-18T17:02:34.105Z,89.56
2022-12-18T17:05:01.380Z,89.26
2022-12-18T17:07:29.464Z,88.21
2022-12-18T17:09:57.195Z,88.51
2022-12-18T17:12:24.455Z,89.61
2022-12-18T17:14:51.482Z,89.12
2022-12-18T17:17:21.844Z,88.26
2022-12-18T17:19:50.712Z,89.76
2022-12-18T17:22:18.265Z,89.16
2022-12-18T17:24:46.885Z,89.52
2022-12-18T17:27:14.170Z,89.05
2022-12-18T17:29:47.219Z,89.85
2022-12-18T17:32:17.945Z,88.81
2022-12-18T17:34:45.494Z,89.72
2022-12-18T17:37:13.252Z,89.31
2022-12-18T17:39:40.737Z,88.91
2022-12-18T17:42:10.896Z,89.84
2022-12-18T17:44:42.544Z,89.32
2022-12-18T17:47:12.022Z,89.62
2022-12-18T17:49:39.541Z,89.74
2022-12-18T17:52:06.940Z,90.82
2022-12-18T17:54:33.885Z,89.65
2022-12-18T17:57:00.869Z,90.64
2022-12-18T17:59:27.900Z,90.17
2022-12-18T18:01:55.068Z,89.84
2022-12-18T18:04:23.546Z,89.77
2022-12-18T18:06:50.937Z,89.79
2022-12-18T18:09:17.932Z,89.71
2022-12-18T18:12:03.994Z,90.56
2022-12-18T18:14:32.005Z,90.92
2022-12-18T18:17:01.126Z,90.33
2022-12-18T18:19:33.590Z,90.32
2022-12-18T18:22:01.545Z,90.30
2022-12-18T18:24:29.309Z,89.94
2022-12-18T18:26:56.487Z,90.11
2022-12-18T18:29:26.867Z,90.48
2022-12-18T18:31:54.830Z,90.16
2022-12-18T18:34:27.886Z,90.57
2022-12-18T18:36:55.089Z,89.93
2022-12-18T18:39:22.101Z,90.05
2022-12-18T18:41:49.920Z,90.09
2022-12-18T18:44:19.124Z,91.01
2022-12-18T18:46:47.441Z,90.45
2022-12-18T18:49:15.021Z,90.42
2022-12-18T18:51:42.755Z,91.58
2022-12-18T18:54:10.343Z,91.26
2022-12-18T18:57:12.010Z,91.34
2022-12-18T18:59:31.435Z,91.17
2022-12-18T19:02:04.321Z,90.91
2022-12-18T19:04:33.989Z,90.95
2022-12-18T19:07:02.110Z,92.14
2022-12-18T19:09:30.066Z,91.75
2022-12-18T19:12:16.274Z,92.32
2022-12-18T19:14:44.144Z,92.33
2022-12-18T19:17:11.117Z,91.78
2022-12-18T19:19:38.873Z,91.78
2022-12-18T19:22:05.832Z,92.77
2022-12-18T19:24:32.803Z,92.86
2022-12-18T19:26:59.770Z,91.77
2022-12-18T19:29:26.709Z,92.52
2022-12-18T19:31:53.721Z,92.48
2022-12-18T19:34:20.783Z,92.42
2022-12-18T19:36:48.012Z,91.93
2022-12-18T19:39:19.311Z,93.63
2022-12-18T19:41:47.297Z,92.66
2022-12-18T19:44:17.248Z,92.46
2022-12-18T19:46:46.289Z,92.72
2022-12-18T19:49:18.016Z,92.97
2022-12-18T19:51:45.748Z,93.79
2022-12-18T19:54:17.018Z,94.19
2022-12-18T19:56:45.321Z,92.79
2022-12-18T19:59:12.733Z,92.43
2022-12-18T20:01:40.116Z,92.38
2022-12-18T20:04:07.490Z,92.95
2022-12-18T20:06:46.136Z,92.75
2022-12-18T20:09:13.057Z,93.39
2022-12-18T20:11:41.828Z,93.28
2022-12-18T20:14:10.910Z,93.45
2022-12-18T20:16:38.364Z,92.82
2022-12-18T20:19:06.091Z,94.50
2022-12-18T20:21:33.674Z,93.53
2022-12-18T20:24:02.140Z,93.91
2022-12-18T20:26:29.507Z,94.44
2022-12-18T20:28:56.811Z,94.09
2022-12-18T20:31:24.506Z,93.48
2022-12-18T20:33:53.423Z,94.54
2022-12-18T20:36:24.668Z,93.59
2022-12-18T20:38:55.299Z,93.56
2022-12-18T20:41:25.293Z,93.72
2022-12-18T20:43:52.437Z,92.78
2022-12-18T20:46:20.577Z,92.91
2022-12-18T20:48:48.190Z,94.06
2022-12-18T20:51:19.083Z,93.55
2022-12-18T20:53:47.684Z,94.10
2022-12-18T20:56:21.634Z,94.19
2022-12-18T20:58:51.307Z,94.28
2022-12-18T21:01:23.981Z,94.11
2022-12-18T21:03:51.767Z,94.16
2022-12-18T21:06:21.612Z,93.31
2022-12-18T21:08:49.321Z,93.71
2022-12-18T21:11:41.911Z,93.95
2022-12-18T21:14:18.791Z,94.20
2022-12-18T21:16:47.015Z,94.42
2022-12-18T21:19:18.682Z,95.25
2022-12-18T21:21:46.445Z,94.42
2022-12-18T21:24:13.928Z,94.26
2022-12-18T21:26:45.702Z,94.81
2022-12-18T21:29:25.469Z,94.38
2022-12-18T21:31:54.768Z,93.95
2022-12-18T21:34:26.920Z,93.91
2022-12-18T21:36:56.572Z,94.74
2022-12-18T21:39:25.861Z,94.36
2022-12-18T21:42:11.728Z,95.03
2022-12-18T21:44:41.868Z,95.02
2022-12-18T21:47:20.131Z,95.44
2022-12-18T21:49:50.604Z,94.52
2022-12-18T21:52:17.801Z,94.85
2022-12-18T21:54:44.770Z,94.93
2022-12-18T21:57:13.743Z,95.18
2022-12-18T21:59:43.663Z,94.77
2022-12-18T22:02:16.469Z,95.56
2022-12-18T22:04:45.293Z,95.18
2022-12-18T22:07:15.181Z,94.43
2022-12-18T22:09:42.174Z,95.24
2022-12-18T22:12:13.066Z,95.31
2022-12-18T22:14:39.977Z,95.56
2022-12-18T22:17:07.104Z,94.62
2022-12-18T22:19:42.665Z,94.68
2022-12-18T22:22:10.105Z,94.79
2022-12-18T22:24:37.438Z,94.45
2022-12-18T22:27:04.465Z,94.00
2022-12-18T22:29:50.582Z,94.26
2022-12-18T22:32:25.595Z,94.80
2022-12-18T22:35:08.289Z,94.84
2022-12-18T22:37:37.507Z,95.72
2022-12-18T22:40:07.366Z,94.47
2022-12-18T22:42:34.642Z,95.01
2022-12-18T22:45:01.761Z,94.90
2022-12-18T22:47:30.479Z,94.77
2022-12-18T22:49:58.550Z,95.47
2022-12-18T22:52:25.878Z,94.44
2022-12-18T22:54:54.246Z,95.17
2022-12-18T22:57:23.300Z,94.10
2022-12-18T22:59:51.744Z,94.80
2022-12-18T23:02:19.761Z,94.90
2022-12-18T23:04:50.322Z,94.50
2022-12-18T23:07:17.795Z,94.26
2022-12-18T23:09:45.523Z,93.57
2022-12-18T23:12:16.672Z,95.07
2022-12-18T23:14:44.045Z,94.19
2022-12-18T23:17:11.229Z,94.50
2022-12-18T23:19:38.176Z,93.75
2022-12-18T23:22:11.375Z,95.03
2022-12-18T23:24:38.801Z,95.17
2022-12-18T23:27:05.767Z,95.40
2022-12-18T23:29:37.750Z,94.98
2022-12-18T23:32:05.042Z,95.27
2022-12-18T23:34:32.204Z,94.96
2022-12-18T23:36:59.169Z,95.30
2022-12-18T23:39:29.340Z,94.63
2022-12-18T23:41:58.855Z,94.90
2022-12-18T23:44:27.073Z,94.34
2022-12-18T23:46:54.986Z,95.47
2022-12-18T23:49:22.955Z,94.86
2022-12-18T23:51:50.440Z,95.32
2022-12-18T23:54:17.584Z,95.22
2022-12-18T23:56:49.672Z,95.25
2022-12-18T23:59:19.345Z,94.87
